sensor_id;sensor_type;location;lat;lon;timestamp;pressure;altitude;pressure_sealevel;temperature;humidity
75996;BME280;64681;49.738;9.004;2022-12-11T00:00:24;98899.19;;;0.49;70.88
75996;BME280;64681;49.738;9.004;2022-12-11T00:02:49;98907.91;;;0.44;71.26
75996;BME280;64681;49.738;9.004;2022-12-11T00:05:15;98908.09;;;0.53;70.34
75996;BME280;64681;49.738;9.004;2022-12-11T00:07:41;98898.41;;;0.49;nan
75996;BME280;64681;49.738;9.004;2022-12-11T00:10:06;98903.97;;;0.42;71.43
75996;BME280;64681;49.738;9.004;2022-12-11T00:12:32;98904.22;;;0.01;72.71
75996;BME280;64681;49.738;9.004;2022-12-11T00:14:58;98910.06;;;-0.18;72.91
75996;BME280;64681;49.738;9.004;2022-12-11T00:17:23;98911.53;;;0.09;72.22
75996;BME280;64681;49.738;9.004;2022-12-11T00:19:49;98916.03;;;-0.02;71.88
75996;BME280;64681;49.738;9.004;2022-12-11T00:22:15;98911.31;;;0.00;71.99
75996;BME280;64681;49.738;9.004;2022-12-11T00:24:41;98897.00;;;-0.34;73.33
75996;BME280;64681;49.738;9.004;2022-12-11T00:27:07;98916.88;;;-0.17;72.81
75996;BME280;64681;49.738;9.004;2022-12-11T00:29:32;98915.56;;;-0.09;72.73
75996;BME280;64681;49.738;9.004;2022-12-11T00:31:58;98921.31;;;-0.12;73.10
75996;BME280;64681;49.738;9.004;2022-12-11T00:34:24;98925.84;;;-0.23;74.00
75996;BME280;64681;49.738;9.004;2022-12-11T00:36:49;98926.00;;;-0.04;73.98
75996;BME280;64681;49.738;9.004;2022-12-11T00:39:15;98912.28;;;0.09;73.23
75996;BME280;64681;49.738;9.004;2022-12-11T00:41:40;98914.03;;;0.29;72.62
75996;BME280;64681;49.738;9.004;2022-12-11T00:44:06;98923.44;;;0.36;72.33
75996;BME280;64681;49.738;9.004;2022-12-11T00:46:31;98929.41;;;0.46;71.27
75996;BME280;64681;49.738;9.004;2022-12-11T00:48:57;98923.06;;;0.53;71.45
75996;BME280;64681;49.738;9.004;2022-12-11T00:51:23;98918.41;;;0.39;71.34
75996;BME280;64681;49.738;9.004;2022-12-11T00:53:50;98924.09;;;0.57;70.95
75996;BME280;64681;49.738;9.004;2022-12-11T00:56:18;98932.69;;;0.28;72.13
75996;BME280;64681;49.738;9.004;2022-12-11T00:58:45;98934.97;;;-0.10;73.14
75996;BME280;64681;49.738;9.004;2022-12-11T01:01:16;98920.41;;;0.13;72.55
75996;BME280;64681;49.738;9.004;2022-12-11T01:03:42;98919.78;;;0.31;71.80
75996;BME280;64681;49.738;9.004;2022-12-11T01:06:12;98923.59;;;0.05;72.61
75996;BME280;64681;49.738;9.004;2022-12-11T01:08:38;98919.38;;;0.54;71.04
75996;BME280;64681;49.738;9.004;2022-12-11T01:11:07;98919.50;;;0.38;71.59
75996;BME280;64681;49.738;9.004;2022-12-11T01:13:33;98925.06;;;0.66;70.37
75996;BME280;64681;49.738;9.004;2022-12-11T01:16:04;98898.44;;;0.43;70.73
75996;BME280;64681;49.738;9.004;2022-12-11T01:18:29;98931.22;;;0.86;69.36
75996;BME280;64681;49.738;9.004;2022-12-11T01:20:55;98914.25;;;0.33;69.78
75996;BME280;64681;49.738;9.004;2022-12-11T01:23:20;98931.69;;;0.19;71.54
75996;BME280;64681;49.738;9.004;2022-12-11T01:25:46;98928.00;;;0.20;72.18
75996;BME280;64681;49.738;9.004;2022-12-11T01:28:12;98925.59;;;-0.27;73.66
75996;BME280;64681;49.738;9.004;2022-12-11T01:30:40;98903.31;;;-0.29;73.67
75996;BME280;64681;49.738;9.004;2022-12-11T01:33:06;98912.91;;;-0.04;73.52
75996;BME280;64681;49.738;9.004;2022-12-11T01:35:32;98919.06;;;0.21;72.93
75996;BME280;64681;49.738;9.004;2022-12-11T01:37:58;98919.13;;;0.50;71.73
75996;BME280;64681;49.738;9.004;2022-12-11T01:40:23;98917.44;;;0.70;70.27
75996;BME280;64681;49.738;9.004;2022-12-11T01:42:49;98925.34;;;0.65;70.61
75996;BME280;64681;49.738;9.004;2022-12-11T01:47:56;98917.06;;;0.47;70.85
75996;BME280;64681;49.738;9.004;2022-12-11T01:50:25;98919.97;;;0.45;70.21
75996;BME280;64681;49.738;9.004;2022-12-11T01:52:52;98924.50;;;0.74;69.35
75996;BME280;64681;49.738;9.004;2022-12-11T01:55:19;98918.06;;;0.56;69.68
75996;BME280;64681;49.738;9.004;2022-12-11T01:57:48;98931.22;;;0.51;70.02
75996;BME280;64681;49.738;9.004;2022-12-11T02:00:16;98910.81;;;0.38;70.29
75996;BME280;64681;49.738;9.004;2022-12-11T02:02:42;98935.06;;;0.64;70.41
75996;BME280;64681;49.738;9.004;2022-12-11T02:05:08;98929.09;;;0.53;71.05
75996;BME280;64681;49.738;9.004;2022-12-11T02:07:42;98931.16;;;0.22;71.72
75996;BME280;64681;49.738;9.004;2022-12-11T02:10:10;98920.16;;;0.14;72.82
75996;BME280;64681;49.738;9.004;2022-12-11T02:13:01;98921.03;;;0.39;71.83
75996;BME280;64681;49.738;9.004;2022-12-11T02:15:35;98928.69;;;0.41;71.82
75996;BME280;64681;49.738;9.004;2022-12-11T02:18:41;98926.44;;;0.58;71.02
75996;BME280;64681;49.738;9.004;2022-12-11T02:21:27;98924.56;;;0.64;71.12
75996;BME280;64681;49.738;9.004;2022-12-11T02:23:59;98927.34;;;0.78;70.56
75996;BME280;64681;49.738;9.004;2022-12-11T02:29:34;98927.75;;;0.61;71.29
75996;BME280;64681;49.738;9.004;2022-12-11T02:32:15;98925.34;;;0.65;71.30
75996;BME280;64681;49.738;9.004;2022-12-11T02:34:50;98934.84;;;0.60;71.59
75996;BME280;64681;49.738;9.004;2022-12-11T02:37:23;98939.75;;;0.72;71.10
75996;BME280;64681;49.738;9.004;2022-12-11T02:39:53;98932.03;;;0.81;70.68
75996;BME280;64681;49.738;9.004;2022-12-11T02:42:22;98931.69;;;0.93;70.59
75996;BME280;64681;49.738;9.004;2022-12-11T02:44:53;98931.38;;;1.00;70.58
75996;BME280;64681;49.738;9.004;2022-12-11T02:47:24;98926.84;;;0.76;70.53
75996;BME280;64681;49.738;9.004;2022-12-11T02:49:54;98920.81;;;0.75;71.06
75996;BME280;64681;49.738;9.004;2022-12-11T02:52:25;98927.06;;;0.45;71.68
75996;BME280;64681;49.738;9.004;2022-12-11T02:54:55;98932.19;;;0.95;69.90
75996;BME280;64681;49.738;9.004;2022-12-11T02:59:51;98926.81;;;1.10;69.08
75996;BME280;64681;49.738;9.004;2022-12-11T03:02:17;98916.66;;;0.99;69.32
75996;BME280;64681;49.738;9.004;2022-12-11T03:04:46;98919.34;;;0.93;69.84
75996;BME280;64681;49.738;9.004;2022-12-11T03:07:20;98921.63;;;1.00;69.30
75996;BME280;64681;49.738;9.004;2022-12-11T03:09:48;98926.59;;;1.07;69.03
75996;BME280;64681;49.738;9.004;2022-12-11T03:12:18;98915.22;;;0.82;70.07
75996;BME280;64681;49.738;9.004;2022-12-11T03:14:44;98918.66;;;0.77;70.91
75996;BME280;64681;49.738;9.004;2022-12-11T03:17:14;98929.25;;;1.02;69.57
75996;BME280;64681;49.738;9.004;2022-12-11T03:20:10;98943.97;;;1.32;67.47
75996;BME280;64681;49.738;9.004;2022-12-11T03:22:50;98928.28;;;0.92;69.36
75996;BME280;64681;49.738;9.004;2022-12-11T03:25:29;98935.75;;;1.09;68.18
75996;BME280;64681;49.738;9.004;2022-12-11T03:28:15;98931.41;;;1.24;67.23
75996;BME280;64681;49.738;9.004;2022-12-11T03:30:45;98938.75;;;1.27;67.32
75996;BME280;64681;49.738;9.004;2022-12-11T03:33:24;98924.97;;;1.11;67.60
75996;BME280;64681;49.738;9.004;2022-12-11T03:35:55;98928.00;;;0.94;68.70
75996;BME280;64681;49.738;9.004;2022-12-11T03:38:35;98926.94;;;0.21;71.51
75996;BME280;64681;49.738;9.004;2022-12-11T03:41:04;98902.47;;;0.30;71.17
75996;BME280;64681;49.738;9.004;2022-12-11T03:43:33;98932.41;;;0.69;70.11
75996;BME280;64681;49.738;9.004;2022-12-11T03:46:00;98927.47;;;0.97;68.65
75996;BME280;64681;49.738;9.004;2022-12-11T03:48:31;98917.16;;;0.71;70.32
75996;BME280;64681;49.738;9.004;2022-12-11T03:51:02;98923.47;;;0.70;70.04
75996;BME280;64681;49.738;9.004;2022-12-11T03:53:31;98923.91;;;0.83;69.95
75996;BME280;64681;49.738;9.004;2022-12-11T03:55:59;98934.31;;;1.22;68.18
75996;BME280;64681;49.738;9.004;2022-12-11T03:58:26;98931.56;;;1.08;68.76
75996;BME280;64681;49.738;9.004;2022-12-11T04:00:51;98933.06;;;1.44;67.44
75996;BME280;64681;49.738;9.004;2022-12-11T04:03:17;98935.69;;;1.44;68.04
75996;BME280;64681;49.738;9.004;2022-12-11T04:05:49;98934.03;;;1.24;68.90
75996;BME280;64681;49.738;9.004;2022-12-11T04:08:16;98929.28;;;1.26;68.90
75996;BME280;64681;49.738;9.004;2022-12-11T04:10:42;98929.13;;;1.41;67.90
75996;BME280;64681;49.738;9.004;2022-12-11T04:13:09;98929.91;;;1.18;68.57
75996;BME280;64681;49.738;9.004;2022-12-11T04:15:35;98927.78;;;1.20;69.00
75996;BME280;64681;49.738;9.004;2022-12-11T04:18:00;98932.91;;;1.06;69.55
75996;BME280;64681;49.738;9.004;2022-12-11T04:20:45;98928.78;;;1.24;69.32
75996;BME280;64681;49.738;9.004;2022-12-11T04:23:29;98933.16;;;0.75;71.45
75996;BME280;64681;49.738;9.004;2022-12-11T04:26:15;98921.94;;;0.64;72.01
75996;BME280;64681;49.738;9.004;2022-12-11T04:28:43;98918.66;;;0.83;71.53
75996;BME280;64681;49.738;9.004;2022-12-11T04:31:14;98922.19;;;0.97;71.30
75996;BME280;64681;49.738;9.004;2022-12-11T04:33:40;98928.16;;;1.08;70.72
75996;BME280;64681;49.738;9.004;2022-12-11T04:36:06;98929.72;;;1.09;70.28
75996;BME280;64681;49.738;9.004;2022-12-11T04:38:32;98927.78;;;1.20;69.79
75996;BME280;64681;49.738;9.004;2022-12-11T04:41:03;98922.44;;;1.01;69.98
75996;BME280;64681;49.738;9.004;2022-12-11T04:43:28;98918.53;;;0.93;70.92
75996;BME280;64681;49.738;9.004;2022-12-11T04:46:21;98916.94;;;0.97;70.91
75996;BME280;64681;49.738;9.004;2022-12-11T04:48:48;98914.53;;;0.71;71.92
75996;BME280;64681;49.738;9.004;2022-12-11T04:51:15;98910.41;;;0.60;72.71
75996;BME280;64681;49.738;9.004;2022-12-11T04:53:41;98922.28;;;1.16;70.17
75996;BME280;64681;49.738;9.004;2022-12-11T04:56:09;98927.56;;;1.16;70.08
75996;BME280;64681;49.738;9.004;2022-12-11T04:58:36;98925.97;;;1.15;70.47
75996;BME280;64681;49.738;9.004;2022-12-11T05:01:18;98921.69;;;0.60;72.28
75996;BME280;64681;49.738;9.004;2022-12-11T05:03:44;98917.28;;;-0.50;77.21
75996;BME280;64681;49.738;9.004;2022-12-11T05:06:10;98909.94;;;-0.58;78.04
75996;BME280;64681;49.738;9.004;2022-12-11T05:08:38;98916.06;;;-0.12;76.83
75996;BME280;64681;49.738;9.004;2022-12-11T05:11:08;98905.44;;;-0.42;77.94
75996;BME280;64681;49.738;9.004;2022-12-11T05:13:34;98894.69;;;-0.40;77.67
75996;BME280;64681;49.738;9.004;2022-12-11T05:16:03;98893.34;;;0.18;74.92
75996;BME280;64681;49.738;9.004;2022-12-11T05:18:29;98899.09;;;0.65;73.55
75996;BME280;64681;49.738;9.004;2022-12-11T05:21:00;98893.25;;;0.68;73.31
75996;BME280;64681;49.738;9.004;2022-12-11T05:23:26;98893.97;;;0.78;72.63
75996;BME280;64681;49.738;9.004;2022-12-11T05:25:57;98895.13;;;0.67;73.10
75996;BME280;64681;49.738;9.004;2022-12-11T05:28:24;98896.47;;;0.94;71.81
75996;BME280;64681;49.738;9.004;2022-12-11T05:31:02;98891.72;;;0.96;72.06
75996;BME280;64681;49.738;9.004;2022-12-11T05:33:28;98889.38;;;0.94;72.19
75996;BME280;64681;49.738;9.004;2022-12-11T05:35:54;98903.31;;;0.60;73.46
75996;BME280;64681;49.738;9.004;2022-12-11T05:38:20;98886.94;;;0.34;74.68
75996;BME280;64681;49.738;9.004;2022-12-11T05:41:06;98891.03;;;0.51;74.30
75996;BME280;64681;49.738;9.004;2022-12-11T05:43:34;98892.63;;;0.52;74.29
75996;BME280;64681;49.738;9.004;2022-12-11T05:46:08;98891.78;;;0.56;74.26
75996;BME280;64681;49.738;9.004;2022-12-11T05:48:35;98899.63;;;0.61;74.26
75996;BME280;64681;49.738;9.004;2022-12-11T05:51:02;98899.84;;;1.00;72.78
75996;BME280;64681;49.738;9.004;2022-12-11T05:53:29;98896.06;;;0.82;73.24
75996;BME280;64681;49.738;9.004;2022-12-11T05:56:03;98887.47;;;0.71;73.52
75996;BME280;64681;49.738;9.004;2022-12-11T05:58:29;98887.00;;;0.63;74.44
75996;BME280;64681;49.738;9.004;2022-12-11T06:00:55;98890.44;;;0.93;73.31
75996;BME280;64681;49.738;9.004;2022-12-11T06:03:21;98887.41;;;0.76;74.37
75996;BME280;64681;49.738;9.004;2022-12-11T06:05:46;98881.25;;;0.91;73.98
75996;BME280;64681;49.738;9.004;2022-12-11T06:08:12;98883.00;;;1.01;73.34
75996;BME280;64681;49.738;9.004;2022-12-11T06:10:37;98883.44;;;0.84;73.87
75996;BME280;64681;49.738;9.004;2022-12-11T06:13:08;98882.75;;;0.68;74.41
75996;BME280;64681;49.738;9.004;2022-12-11T06:15:34;98885.78;;;1.09;73.06
75996;BME280;64681;49.738;9.004;2022-12-11T06:18:00;98881.16;;;1.01;72.40
75996;BME280;64681;49.738;9.004;2022-12-11T06:20:25;98885.59;;;0.76;73.66
75996;BME280;64681;49.738;9.004;2022-12-11T06:22:51;98877.72;;;0.76;73.49
75996;BME280;64681;49.738;9.004;2022-12-11T06:25:16;98879.31;;;0.72;73.53
75996;BME280;64681;49.738;9.004;2022-12-11T06:27:42;98879.84;;;0.69;73.93
75996;BME280;64681;49.738;9.004;2022-12-11T06:30:08;98877.84;;;0.61;74.23
75996;BME280;64681;49.738;9.004;2022-12-11T06:32:33;98887.81;;;0.88;73.05
75996;BME280;64681;49.738;9.004;2022-12-11T06:34:59;98879.56;;;1.00;72.76
75996;BME280;64681;49.738;9.004;2022-12-11T06:37:24;98878.66;;;0.86;73.32
75996;BME280;64681;49.738;9.004;2022-12-11T06:39:50;98873.03;;;0.68;74.16
75996;BME280;64681;49.738;9.004;2022-12-11T06:42:15;98869.66;;;0.62;74.34
75996;BME280;64681;49.738;9.004;2022-12-11T06:44:41;98865.47;;;0.61;74.57
75996;BME280;64681;49.738;9.004;2022-12-11T06:47:07;98868.50;;;0.44;75.29
75996;BME280;64681;49.738;9.004;2022-12-11T06:49:32;98868.28;;;0.70;74.94
75996;BME280;64681;49.738;9.004;2022-12-11T06:51:58;98867.91;;;0.82;73.93
75996;BME280;64681;49.738;9.004;2022-12-11T06:54:27;98861.84;;;0.87;74.11
75996;BME280;64681;49.738;9.004;2022-12-11T06:56:52;98863.56;;;0.97;73.56
75996;BME280;64681;49.738;9.004;2022-12-11T06:59:18;98868.03;;;0.72;74.49
75996;BME280;64681;49.738;9.004;2022-12-11T07:01:44;98868.44;;;0.84;74.29
75996;BME280;64681;49.738;9.004;2022-12-11T07:04:09;98871.19;;;0.98;73.57
75996;BME280;64681;49.738;9.004;2022-12-11T07:06:35;98865.56;;;1.10;73.15
75996;BME280;64681;49.738;9.004;2022-12-11T07:09:03;98874.28;;;0.76;73.90
75996;BME280;64681;49.738;9.004;2022-12-11T07:11:29;98866.91;;;0.78;74.17
75996;BME280;64681;49.738;9.004;2022-12-11T07:13:58;98868.91;;;0.57;74.59
75996;BME280;64681;49.738;9.004;2022-12-11T07:16:25;98870.63;;;1.01;72.80
75996;BME280;64681;49.738;9.004;2022-12-11T07:18:51;98869.84;;;1.01;73.37
75996;BME280;64681;49.738;9.004;2022-12-11T07:21:18;98862.56;;;0.92;73.32
75996;BME280;64681;49.738;9.004;2022-12-11T07:23:44;98857.03;;;0.94;73.40
75996;BME280;64681;49.738;9.004;2022-12-11T07:26:14;98864.50;;;0.82;74.03
75996;BME280;64681;49.738;9.004;2022-12-11T07:28:40;98875.03;;;0.82;74.30
75996;BME280;64681;49.738;9.004;2022-12-11T07:31:11;98854.84;;;0.77;74.33
75996;BME280;64681;49.738;9.004;2022-12-11T07:33:37;98854.84;;;0.77;74.28
75996;BME280;64681;49.738;9.004;2022-12-11T07:36:05;98856.91;;;0.80;74.53
75996;BME280;64681;49.738;9.004;2022-12-11T07:38:32;98865.50;;;0.91;74.25
75996;BME280;64681;49.738;9.004;2022-12-11T07:41:04;98873.59;;;0.94;74.38
75996;BME280;64681;49.738;9.004;2022-12-11T07:43:30;98885.72;;;1.20;73.32
75996;BME280;64681;49.738;9.004;2022-12-11T07:46:00;98881.50;;;1.19;73.33
75996;BME280;64681;49.738;9.004;2022-12-11T07:48:26;98884.97;;;1.14;73.59
75996;BME280;64681;49.738;9.004;2022-12-11T07:50:52;98876.13;;;1.05;74.08
75996;BME280;64681;49.738;9.004;2022-12-11T07:53:17;98881.75;;;0.93;74.53
75996;BME280;64681;49.738;9.004;2022-12-11T07:55:43;98889.81;;;1.02;74.67
75996;BME280;64681;49.738;9.004;2022-12-11T07:58:08;98880.59;;;1.29;73.72
75996;BME280;64681;49.738;9.004;2022-12-11T08:00:34;98885.66;;;1.49;72.91
75996;BME280;64681;49.738;9.004;2022-12-11T08:02:59;98872.41;;;1.35;72.34
75996;BME280;64681;49.738;9.004;2022-12-11T08:05:25;98892.00;;;1.48;72.89
75996;BME280;64681;49.738;9.004;2022-12-11T08:07:50;98883.00;;;1.25;73.49
75996;BME280;64681;49.738;9.004;2022-12-11T08:10:16;98886.44;;;1.25;73.35
75996;BME280;64681;49.738;9.004;2022-12-11T08:12:41;98887.00;;;1.22;73.70
75996;BME280;64681;49.738;9.004;2022-12-11T08:15:08;98885.41;;;1.21;74.15
75996;BME280;64681;49.738;9.004;2022-12-11T08:17:33;98879.50;;;1.59;72.33
75996;BME280;64681;49.738;9.004;2022-12-11T08:19:59;98889.25;;;1.78;71.78
75996;BME280;64681;49.738;9.004;2022-12-11T08:22:25;98885.56;;;1.79;71.39
75996;BME280;64681;49.738;9.004;2022-12-11T08:24:52;98884.63;;;1.69;71.84
75996;BME280;64681;49.738;9.004;2022-12-11T08:27:17;98892.72;;;1.97;71.42
75996;BME280;64681;49.738;9.004;2022-12-11T08:29:43;98898.59;;;1.89;71.08
75996;BME280;64681;49.738;9.004;2022-12-11T08:32:10;98897.34;;;1.62;71.92
75996;BME280;64681;49.738;9.004;2022-12-11T08:34:37;98893.59;;;1.68;71.93
75996;BME280;64681;49.738;9.004;2022-12-11T08:37:03;98896.66;;;1.76;71.83
75996;BME280;64681;49.738;9.004;2022-12-11T08:39:29;98873.22;;;1.55;71.58
75996;BME280;64681;49.738;9.004;2022-12-11T08:41:54;98891.19;;;1.72;72.25
75996;BME280;64681;49.738;9.004;2022-12-11T08:44:20;98891.00;;;1.87;72.04
75996;BME280;64681;49.738;9.004;2022-12-11T08:46:49;98885.72;;;1.87;71.49
75996;BME280;64681;49.738;9.004;2022-12-11T08:49:14;98887.31;;;1.64;72.34
75996;BME280;64681;49.738;9.004;2022-12-11T08:51:40;98886.91;;;1.76;71.69
75996;BME280;64681;49.738;9.004;2022-12-11T08:54:05;98883.50;;;1.76;71.55
75996;BME280;64681;49.738;9.004;2022-12-11T08:56:31;98885.22;;;1.85;72.20
75996;BME280;64681;49.738;9.004;2022-12-11T08:59:00;98885.78;;;2.01;71.65
75996;BME280;64681;49.738;9.004;2022-12-11T09:01:27;98877.34;;;2.24;70.96
75996;BME280;64681;49.738;9.004;2022-12-11T09:03:55;98874.28;;;2.16;70.61
75996;BME280;64681;49.738;9.004;2022-12-11T09:06:22;98875.41;;;2.10;70.83
75996;BME280;64681;49.738;9.004;2022-12-11T09:08:50;98879.25;;;2.18;70.77
75996;BME280;64681;49.738;9.004;2022-12-11T09:11:22;98882.78;;;2.46;69.24
75996;BME280;64681;49.738;9.004;2022-12-11T09:13:48;98880.97;;;2.61;68.79
75996;BME280;64681;49.738;9.004;2022-12-11T09:16:17;98882.06;;;2.60;68.32
75996;BME280;64681;49.738;9.004;2022-12-11T09:18:45;98895.81;;;2.57;68.34
75996;BME280;64681;49.738;9.004;2022-12-11T09:21:13;98895.34;;;1.97;68.97
75996;BME280;64681;49.738;9.004;2022-12-11T09:23:40;98895.06;;;2.18;69.07
75996;BME280;64681;49.738;9.004;2022-12-11T09:26:07;98900.81;;;2.39;68.48
75996;BME280;64681;49.738;9.004;2022-12-11T09:28:35;98886.66;;;2.68;66.36
75996;BME280;64681;49.738;9.004;2022-12-11T09:31:08;98899.03;;;2.34;67.11
75996;BME280;64681;49.738;9.004;2022-12-11T09:33:34;98903.88;;;1.16;70.19
75996;BME280;64681;49.738;9.004;2022-12-11T09:36:01;98906.22;;;1.18;71.32
75996;BME280;64681;49.738;9.004;2022-12-11T09:38:28;98902.13;;;1.60;70.73
75996;BME280;64681;49.738;9.004;2022-12-11T09:40:54;98915.16;;;1.89;68.46
75996;BME280;64681;49.738;9.004;2022-12-11T09:46:18;98905.47;;;2.28;67.98
75996;BME280;64681;49.738;9.004;2022-12-11T09:48:47;98900.00;;;2.58;66.53
75996;BME280;64681;49.738;9.004;2022-12-11T09:51:21;98893.91;;;2.24;68.10
75996;BME280;64681;49.738;9.004;2022-12-11T09:53:49;98884.50;;;2.37;67.84
75996;BME280;64681;49.738;9.004;2022-12-11T09:56:30;98892.97;;;2.34;67.98
75996;BME280;64681;49.738;9.004;2022-12-11T10:04:29;98880.88;;;2.33;67.26
75996;BME280;64681;49.738;9.004;2022-12-11T10:07:12;98890.13;;;1.92;68.49
75996;BME280;64681;49.738;9.004;2022-12-11T10:13:04;98887.00;;;2.47;67.91
75996;BME280;64681;49.738;9.004;2022-12-11T10:15:38;98879.91;;;2.62;66.28
75996;BME280;64681;49.738;9.004;2022-12-11T10:18:13;98882.78;;;2.46;67.27
75996;BME280;64681;49.738;9.004;2022-12-11T10:20:41;98881.78;;;2.42;67.79
75996;BME280;64681;49.738;9.004;2022-12-11T10:23:17;98876.72;;;2.46;67.52
75996;BME280;64681;49.738;9.004;2022-12-11T10:26:06;98872.59;;;2.40;68.31
75996;BME280;64681;49.738;9.004;2022-12-11T10:28:34;98873.97;;;1.99;67.97
75996;BME280;64681;49.738;9.004;2022-12-11T10:31:09;98873.00;;;2.14;68.23
75996;BME280;64681;49.738;9.004;2022-12-11T10:36:19;98862.25;;;2.29;66.89
75996;BME280;64681;49.738;9.004;2022-12-11T10:38:46;98862.25;;;2.29;66.35
75996;BME280;64681;49.738;9.004;2022-12-11T10:41:18;98852.28;;;2.59;65.27
75996;BME280;64681;49.738;9.004;2022-12-11T10:43:52;98858.22;;;2.51;64.29
75996;BME280;64681;49.738;9.004;2022-12-11T10:46:28;98854.47;;;2.19;65.02
75996;BME280;64681;49.738;9.004;2022-12-11T10:48:56;98853.09;;;2.41;65.59
75996;BME280;64681;49.738;9.004;2022-12-11T10:51:40;98850.47;;;2.41;66.70
75996;BME280;64681;49.738;9.004;2022-12-11T10:54:38;98844.84;;;2.61;64.98
75996;BME280;64681;49.738;9.004;2022-12-11T10:57:07;98843.06;;;2.76;64.50
75996;BME280;64681;49.738;9.004;2022-12-11T11:02:22;98847.13;;;2.35;64.94
75996;BME280;64681;49.738;9.004;2022-12-11T11:04:50;98834.19;;;2.85;63.64
75996;BME280;64681;49.738;9.004;2022-12-11T11:09:42;98824.72;;;2.51;63.79
75996;BME280;64681;49.738;9.004;2022-12-11T11:14:45;98822.84;;;3.27;62.84
75996;BME280;64681;49.738;9.004;2022-12-11T11:17:16;98815.72;;;2.99;61.17
75996;BME280;64681;49.738;9.004;2022-12-11T11:19:46;98818.25;;;3.46;60.72
75996;BME280;64681;49.738;9.004;2022-12-11T11:22:17;98816.06;;;3.62;59.79
75996;BME280;64681;49.738;9.004;2022-12-11T11:24:52;98813.47;;;3.48;60.68
75996;BME280;64681;49.738;9.004;2022-12-11T11:29:58;98814.94;;;3.41;60.17
75996;BME280;64681;49.738;9.004;2022-12-11T11:32:36;98822.25;;;2.88;62.69
75996;BME280;64681;49.738;9.004;2022-12-11T11:37:39;98811.97;;;1.30;66.71
75996;BME280;64681;49.738;9.004;2022-12-11T11:40:27;98814.78;;;1.15;67.88
75996;BME280;64681;49.738;9.004;2022-12-11T11:43:20;98808.38;;;1.21;67.73
75996;BME280;64681;49.738;9.004;2022-12-11T11:51:33;98794.91;;;2.84;63.27
75996;BME280;64681;49.738;9.004;2022-12-11T11:54:12;98793.25;;;2.88;62.15
75996;BME280;64681;49.738;9.004;2022-12-11T11:56:43;98785.72;;;2.81;63.40
75996;BME280;64681;49.738;9.004;2022-12-11T11:59:27;98781.03;;;2.92;63.05
75996;BME280;64681;49.738;9.004;2022-12-11T12:01:56;98779.59;;;3.00;62.73
75996;BME280;64681;49.738;9.004;2022-12-11T12:04:32;98792.44;;;3.43;61.24
75996;BME280;64681;49.738;9.004;2022-12-11T12:10:28;98792.19;;;3.31;61.60
75996;BME280;64681;49.738;9.004;2022-12-11T12:13:06;98790.81;;;3.20;61.79
75996;BME280;64681;49.738;9.004;2022-12-11T12:15:49;98788.34;;;3.37;61.50
75996;BME280;64681;49.738;9.004;2022-12-11T12:18:40;98791.88;;;3.19;61.23
75996;BME280;64681;49.738;9.004;2022-12-11T12:21:34;98783.50;;;2.75;62.92
75996;BME280;64681;49.738;9.004;2022-12-11T12:40:57;98785.97;;;0.80;72.18
75996;BME280;64681;49.738;9.004;2022-12-11T12:48:38;98775.50;;;2.00;67.75
75996;BME280;64681;49.738;9.004;2022-12-11T12:51:05;98786.34;;;1.79;68.13
75996;BME280;64681;49.738;9.004;2022-12-11T12:53:35;98787.34;;;0.97;70.96
75996;BME280;64681;49.738;9.004;2022-12-11T12:56:03;98778.97;;;0.94;71.68
75996;BME280;64681;49.738;9.004;2022-12-11T12:58:41;98781.03;;;0.73;71.17
75996;BME280;64681;49.738;9.004;2022-12-11T13:03:36;98774.19;;;0.48;72.23
75996;BME280;64681;49.738;9.004;2022-12-11T13:06:13;98781.53;;;0.46;73.67
75996;BME280;64681;49.738;9.004;2022-12-11T13:08:49;98743.69;;;0.76;71.03
75996;BME280;64681;49.738;9.004;2022-12-11T13:11:18;98781.81;;;1.22;70.05
75996;BME280;64681;49.738;9.004;2022-12-11T13:13:47;98769.31;;;0.60;71.71
75996;BME280;64681;49.738;9.004;2022-12-11T13:18:45;98783.25;;;0.61;72.53
75996;BME280;64681;49.738;9.004;2022-12-11T13:21:33;98774.53;;;0.36;73.71
75996;BME280;64681;49.738;9.004;2022-12-11T13:26:39;98777.28;;;0.50;73.78
75996;BME280;64681;49.738;9.004;2022-12-11T13:29:25;98778.69;;;0.72;71.67
75996;BME280;64681;49.738;9.004;2022-12-11T13:31:58;98782.69;;;1.37;70.26
75996;BME280;64681;49.738;9.004;2022-12-11T13:34:28;98778.34;;;1.84;67.43
75996;BME280;64681;49.738;9.004;2022-12-11T13:36:56;98780.91;;;1.89;67.47
75996;BME280;64681;49.738;9.004;2022-12-11T13:39:25;98772.25;;;1.70;67.78
75996;BME280;64681;49.738;9.004;2022-12-11T13:41:55;98790.41;;;1.04;70.50
75996;BME280;64681;49.738;9.004;2022-12-11T13:44:26;98782.91;;;1.60;69.31
75996;BME280;64681;49.738;9.004;2022-12-11T13:46:56;98784.69;;;1.83;67.88
75996;BME280;64681;49.738;9.004;2022-12-11T13:49:26;98787.41;;;1.78;67.80
75996;BME280;64681;49.738;9.004;2022-12-11T13:51:56;98789.72;;;1.41;69.51
75996;BME280;64681;49.738;9.004;2022-12-11T13:54:23;98781.06;;;1.60;69.38
75996;BME280;64681;49.738;9.004;2022-12-11T14:02:00;98792.31;;;1.22;70.54
75996;BME280;64681;49.738;9.004;2022-12-11T14:04:29;98796.41;;;0.56;73.68
75996;BME280;64681;49.738;9.004;2022-12-11T14:06:57;98793.97;;;1.18;71.92
75996;BME280;64681;49.738;9.004;2022-12-11T14:09:25;98788.84;;;0.78;72.32
75996;BME280;64681;49.738;9.004;2022-12-11T14:11:53;98791.50;;;-0.25;75.96
75996;BME280;64681;49.738;9.004;2022-12-11T14:14:30;98796.09;;;-0.46;77.11
75996;BME280;64681;49.738;9.004;2022-12-11T14:16:59;98796.53;;;-0.29;77.32
75996;BME280;64681;49.738;9.004;2022-12-11T14:19:26;98798.91;;;-0.27;76.03
75996;BME280;64681;49.738;9.004;2022-12-11T14:22:01;98798.94;;;0.07;75.14
75996;BME280;64681;49.738;9.004;2022-12-11T14:24:28;98802.81;;;0.74;72.68
75996;BME280;64681;49.738;9.004;2022-12-11T14:26:54;98806.75;;;0.76;72.28
75996;BME280;64681;49.738;9.004;2022-12-11T14:29:32;98803.94;;;0.68;71.68
75996;BME280;64681;49.738;9.004;2022-12-11T14:32:04;98808.16;;;1.17;70.23
75996;BME280;64681;49.738;9.004;2022-12-11T14:34:38;98808.22;;;0.88;70.88
75996;BME280;64681;49.738;9.004;2022-12-11T14:37:09;98809.56;;;0.26;72.34
75996;BME280;64681;49.738;9.004;2022-12-11T14:39:43;98816.59;;;0.31;72.79
75996;BME280;64681;49.738;9.004;2022-12-11T14:42:13;98819.44;;;0.35;73.04